METAR πλησιέστερων αεροδρομίων

 

LGIR - Iraklion Airport
Απόσταση από το σταθμό: ΒΔ 62km
Ενημερώθηκε: 13/12/2019 10:20
Λίγα σύννεφα
Λίγα σύννεφα
 Ανεμος από ΝΝΑ
Ανεμος: ΝΝΑ 11 km/h
Θερμοκρασία: 18°C
Σημείο Δρόσου: 10°C
Υγρασία: 60%
Βαρόμετρο: 1006 hPa
Νέφη: Λίγα σύννεφα
Ορατότητα: 10 km
Λεπτομέρειες νεφών: Λίγα σύννεφα 610 m
2019/12/13 08:20 LGIR 130820Z 15006KT 9999 FEW020 18/10 Q1006 NOSIG
LGSA - Souda/Chania Airport
Απόσταση από το σταθμό: ΔΒΔ 154km
Ενημερώθηκε: 13/12/2019 10:20
Μερικώς νεφελώδης
Μερικώς νεφελώδης
 Ανεμος από Δ
Ανεμος: Δ 17 km/h
Θερμοκρασία: 14°C
Σημείο Δρόσου: 11°C
Υγρασία: 82%
Βαρόμετρο: 1006 hPa
Νέφη: Μερικώς νεφελώδης
Ορατότητα: 10 km
Λεπτομέρειες νεφών: Λίγα σύννεφα 549 m
Μερικώς νεφελώδης 914 m
2019/12/13 08:20 LGSA 130820Z 26009KT 9999 FEW018TCU SCT030 14/11 Q1006